createdAt,value
2018-10-11T00:00:01.311Z,36
2018-10-11T00:05:05.888Z,33
2018-10-11T00:10:00.736Z,35
2018-10-11T00:15:01.292Z,37
2018-10-11T00:20:06.233Z,40
2018-10-11T00:25:00.409Z,37
2018-10-11T00:30:01.839Z,33
2018-10-11T00:35:02.111Z,39
2018-10-11T00:40:03.781Z,39
2018-10-11T00:45:00.623Z,37
2018-10-11T00:50:01.944Z,37
2018-10-11T00:55:05.047Z,35
2018-10-11T01:00:07.490Z,39
2018-10-11T01:05:02.164Z,35
2018-10-11T01:10:01.379Z,36
2018-10-11T01:15:04.715Z,40
2018-10-11T01:20:00.944Z,38
2018-10-11T01:25:01.968Z,40
2018-10-11T01:30:04.522Z,34
2018-10-11T01:35:00.803Z,36
2018-10-11T01:40:03.936Z,40
2018-10-11T01:45:01.409Z,38
2018-10-11T01:50:00.812Z,37
2018-10-11T01:55:09.439Z,40
2018-10-11T02:00:39.252Z,39
2018-10-11T02:05:03.922Z,38
2018-10-11T02:10:00.185Z,37
2018-10-11T02:15:01.152Z,39
2018-10-11T02:20:13.125Z,40
2018-10-11T02:25:01.911Z,40
2018-10-11T02:30:01.665Z,40
2018-10-11T02:35:01.242Z,37
2018-10-11T02:40:04.386Z,36
2018-10-11T02:45:01.755Z,40
2018-10-11T02:50:00.313Z,39
2018-10-11T02:55:01.248Z,39
2018-10-11T03:00:05.475Z,39
2018-10-11T03:05:00.473Z,45
2018-10-11T03:10:01.037Z,39
2018-10-11T03:15:00.338Z,40
2018-10-11T03:20:01.564Z,40
2018-10-11T03:25:02.382Z,42
2018-10-11T03:30:02.282Z,42
2018-10-11T03:35:00.518Z,40
2018-10-11T03:40:03.654Z,39
2018-10-11T03:45:02.590Z,39
2018-10-11T03:50:00.273Z,39
2018-10-11T03:55:00.569Z,40
2018-10-11T04:00:03.450Z,43
2018-10-11T04:05:00.079Z,41
2018-10-11T04:10:00.273Z,44
2018-10-11T04:15:02.289Z,44
2018-10-11T04:19:59.928Z,41
2018-10-11T04:25:00.057Z,41
2018-10-11T04:30:04.482Z,45
2018-10-11T04:35:00.218Z,43
2018-10-11T04:40:02.469Z,42
2018-10-11T04:45:09.620Z,42
2018-10-11T04:49:59.830Z,43
2018-10-11T04:55:00.940Z,45
2018-10-11T05:00:00.318Z,44
2018-10-11T05:05:00.440Z,46
2018-10-11T05:10:06.295Z,41
2018-10-11T05:15:00.307Z,44
2018-10-11T05:20:00.394Z,44
2018-10-11T05:25:02.818Z,41
2018-10-11T05:30:00.698Z,39
2018-10-11T05:35:05.087Z,44
2018-10-11T05:40:00.804Z,42
2018-10-11T05:45:07.257Z,46
2018-10-11T05:50:00.093Z,38
2018-10-11T05:55:00.375Z,41
2018-10-11T06:00:05.390Z,39
2018-10-11T06:05:00.159Z,42
2018-10-11T06:10:02.974Z,38
2018-10-11T06:15:00.762Z,42
2018-10-11T06:20:01.947Z,41
2018-10-11T06:25:00.257Z,42
2018-10-11T06:30:01.369Z,39
2018-10-11T06:35:03.648Z,42
2018-10-11T06:39:59.747Z,36
2018-10-11T06:45:00.189Z,43
2018-10-11T06:50:00.563Z,40
2018-10-11T06:55:00.152Z,42
2018-10-11T07:00:05.560Z,40
2018-10-11T07:04:59.970Z,40
2018-10-11T07:10:07.956Z,41
2018-10-11T07:15:00.031Z,39
2018-10-11T07:20:00.491Z,40
2018-10-11T07:25:03.164Z,40
2018-10-11T07:30:01.675Z,40
2018-10-11T07:35:00.171Z,38
2018-10-11T07:40:04.663Z,37
2018-10-11T07:45:01.979Z,33
2018-10-11T08:10:07.651Z,28
2018-10-11T08:15:01.875Z,29
2018-10-11T08:20:02.496Z,22
2018-10-11T08:25:02.006Z,27
2018-10-11T08:30:02.049Z,33
2018-10-11T08:35:02.085Z,34
2018-10-11T08:40:01.695Z,34
2018-10-11T08:45:01.801Z,37
2018-10-11T08:50:01.687Z,35
2018-10-11T08:55:01.826Z,35
2018-10-11T09:00:02.108Z,32
2018-10-11T09:05:01.776Z,34
2018-10-11T09:10:01.654Z,29
2018-10-11T09:15:01.839Z,28
2018-10-11T09:20:02.096Z,32
2018-10-11T09:25:02.004Z,30
2018-10-11T09:30:01.618Z,34
2018-10-11T09:35:01.557Z,32
2018-10-11T09:40:01.595Z,32
2018-10-11T09:45:01.761Z,31
2018-10-11T09:50:01.506Z,28
2018-10-11T09:55:01.490Z,56
2018-10-11T10:00:02.151Z,29
2018-10-11T10:05:01.469Z,22
2018-10-11T10:10:02.062Z,26
2018-10-11T10:15:01.953Z,26
2018-10-11T10:20:02.119Z,28
2018-10-11T10:25:26.205Z,26
2018-10-11T10:30:01.622Z,26
2018-10-11T10:35:01.851Z,21
2018-10-11T10:40:01.915Z,27
2018-10-11T10:45:01.823Z,26
2018-10-11T10:50:01.543Z,25
2018-10-11T10:55:01.655Z,29
2018-10-11T11:00:01.684Z,25
2018-10-11T11:05:01.783Z,29
2018-10-11T11:10:01.769Z,28
2018-10-11T11:15:01.439Z,15
2018-10-11T11:20:02.176Z,23
2018-10-11T11:25:01.933Z,23
2018-10-11T11:30:01.735Z,21
2018-10-11T11:35:01.437Z,24
2018-10-11T11:40:01.416Z,18
2018-10-11T11:45:01.585Z,17
2018-10-11T11:50:01.838Z,17
2018-10-11T11:55:02.237Z,15
2018-10-11T12:00:01.793Z,21
2018-10-11T12:05:01.794Z,18
2018-10-11T12:10:01.446Z,17
2018-10-11T12:15:01.833Z,13
2018-10-11T12:20:01.732Z,16
2018-10-11T12:25:01.353Z,16
2018-10-11T12:30:03.004Z,16
2018-10-11T12:35:01.745Z,13
2018-10-11T12:40:01.700Z,13
2018-10-11T12:45:02.123Z,0
2018-10-11T12:50:01.671Z,10
2018-10-11T12:55:01.208Z,8
2018-10-11T13:00:02.229Z,10
2018-10-11T13:05:01.924Z,10
2018-10-11T13:10:01.859Z,12
2018-10-11T13:15:02.536Z,11
2018-10-11T13:20:02.451Z,13
2018-10-11T13:25:01.754Z,10
2018-10-11T13:30:02.631Z,10
2018-10-11T13:35:01.827Z,7
2018-10-11T13:40:01.569Z,11
2018-10-11T13:45:01.416Z,11
2018-10-11T13:50:01.208Z,0
2018-10-11T13:55:08.122Z,9
2018-10-11T14:00:01.156Z,8
2018-10-11T14:05:01.222Z,10
2018-10-11T14:10:01.575Z,5
2018-10-11T14:15:02.805Z,8
2018-10-11T14:20:01.907Z,8
2018-10-11T14:25:01.521Z,9
2018-10-11T14:30:01.639Z,8
2018-10-11T14:35:01.612Z,6
2018-10-11T14:40:01.500Z,10
2018-10-11T14:45:01.299Z,10
2018-10-11T14:50:01.159Z,6
2018-10-11T14:55:01.357Z,14
2018-10-11T15:00:01.694Z,11
2018-10-11T15:05:01.176Z,10
2018-10-11T15:10:00.949Z,9
2018-10-11T15:15:01.088Z,7
2018-10-11T15:20:01.144Z,7
2018-10-11T15:25:01.181Z,11
2018-10-11T15:30:01.025Z,9
2018-10-11T15:35:01.006Z,7
2018-10-11T15:40:00.954Z,9
2018-10-11T15:45:01.319Z,9
2018-10-11T15:50:01.134Z,7
2018-10-11T15:55:01.040Z,10
2018-10-11T16:00:01.327Z,13
2018-10-11T16:05:01.008Z,13
2018-10-11T16:10:01.091Z,11
2018-10-11T16:15:00.917Z,10
2018-10-11T16:20:00.792Z,10
2018-10-11T16:25:01.064Z,12
2018-10-11T16:30:01.185Z,9
2018-10-11T16:35:00.957Z,9
2018-10-11T16:40:00.769Z,10
2018-10-11T16:45:00.895Z,11
2018-10-11T16:50:00.827Z,11
2018-10-11T16:55:00.875Z,8
2018-10-11T17:00:01.327Z,8
2018-10-11T17:05:00.954Z,15
2018-10-11T17:10:01.040Z,13
2018-10-11T17:15:01.050Z,14
2018-10-11T17:20:00.695Z,14
2018-10-11T17:25:00.953Z,13
2018-10-11T17:30:01.270Z,13
2018-10-11T17:35:01.270Z,19
2018-10-11T17:40:00.905Z,17
2018-10-11T17:45:00.712Z,18
2018-10-11T17:50:00.753Z,13
2018-10-11T17:55:10.656Z,16
2018-10-11T18:00:01.262Z,15
2018-10-11T18:05:01.328Z,19
2018-10-11T18:10:00.853Z,18
2018-10-11T18:15:00.663Z,16
2018-10-11T18:20:00.781Z,19
2018-10-11T18:25:00.818Z,18
2018-10-11T18:30:00.753Z,15
2018-10-11T18:35:00.797Z,22
2018-10-11T18:40:00.954Z,16
2018-10-11T18:45:00.775Z,16
2018-10-11T18:50:00.612Z,16
2018-10-11T18:55:00.855Z,19
2018-10-11T19:00:00.908Z,16
2018-10-11T19:05:00.731Z,12
2018-10-11T19:10:00.912Z,13
2018-10-11T19:15:00.613Z,11
2018-10-11T19:20:01.122Z,13
2018-10-11T19:25:01.019Z,11
2018-10-11T19:30:01.328Z,16
2018-10-11T19:35:00.977Z,14
2018-10-11T19:40:00.956Z,12
2018-10-11T19:45:00.514Z,13
2018-10-11T19:50:00.810Z,14
2018-10-11T19:55:00.850Z,14
2018-10-11T20:00:00.635Z,12
2018-10-11T20:05:00.874Z,12
2018-10-11T20:50:03.329Z,16
2018-10-11T20:55:00.467Z,21
2018-10-11T21:00:00.772Z,17
2018-10-11T21:05:00.381Z,19
2018-10-11T21:10:00.624Z,17
2018-10-11T21:15:00.483Z,16
2018-10-11T21:20:00.575Z,14
2018-10-11T21:25:00.736Z,16
2018-10-11T21:30:00.614Z,25
2018-10-11T21:35:01.926Z,21
2018-10-11T21:40:00.350Z,23
2018-10-11T21:45:00.424Z,22
2018-10-11T21:50:00.551Z,22
2018-10-11T21:55:00.361Z,17
2018-10-11T22:00:00.551Z,23
2018-10-11T22:05:00.323Z,23
2018-10-11T22:10:00.572Z,23
2018-10-11T22:15:00.452Z,18
2018-10-11T22:20:00.516Z,23
2018-10-11T22:25:00.368Z,18
2018-10-11T22:30:00.534Z,20
2018-10-11T22:35:00.379Z,23
2018-10-11T22:40:00.586Z,19
2018-10-11T22:45:00.565Z,19
2018-10-11T22:50:00.486Z,16
2018-10-11T22:55:00.443Z,20
2018-10-11T23:00:00.319Z,14
2018-10-11T23:05:00.684Z,16
2018-10-11T23:10:00.607Z,17
2018-10-11T23:15:00.259Z,17
2018-10-11T23:20:00.363Z,15
2018-10-11T23:25:00.285Z,13
2018-10-11T23:30:00.241Z,14
2018-10-11T23:35:00.435Z,12
2018-10-11T23:40:00.290Z,14
2018-10-11T23:45:00.334Z,13
2018-10-11T23:50:00.158Z,11
2018-10-11T23:55:00.212Z,9
